Time;durP1;ratioP1;P1;durP2;ratioP2;P2;SDS_P1;SDS_P2;PMS_P1;PMS_P2;Temp;Humidity;BMP_temperature;BMP_pressure;BME280_temperature;BME280_humidity;BME280_pressure;Samples;Min_cycle;Max_cycle;Signal;HPM_P1;HPM_P2
2024/03/29 01:45:14;;;;;;;2.47;1.43;;;7.60;99.90;;;;;;5017556;28;21064;-75
2024/03/29 01:47:59;;;;;;;3.10;1.40;;;7.70;99.90;;;;;;5021757;28;20955;-74
2024/03/29 01:50:46;;;;;;;5.10;1.30;;;7.70;99.90;;;;;;5023248;28;20213;-76
2024/03/29 01:53:32;;;;;;;5.43;1.27;;;7.80;99.90;;;;;;5014269;28;20459;-75
2024/03/29 01:56:18;;;;;;;6.63;1.10;;;7.90;99.90;;;;;;5018901;28;20926;-75
2024/03/29 01:59:05;;;;;;;3.90;1.10;;;7.90;99.90;;;;;;5018964;28;20814;-74
2024/03/29 02:01:50;;;;;;;2.40;1.10;;;8.10;99.90;;;;;;5014434;28;20464;-75
2024/03/29 02:04:37;;;;;;;6.47;1.73;;;8.10;99.90;;;;;;5018518;28;20458;-76
2024/03/29 02:07:23;;;;;;;4.87;1.10;;;8.10;99.90;;;;;;5018026;28;20504;-75
2024/03/29 02:10:12;;;;;;;2.57;1.30;;;8.10;99.90;;;;;;5015211;28;20470;-74
2024/03/29 02:12:58;;;;;;;4.63;1.10;;;8.10;99.90;;;;;;5017891;28;20821;-74
2024/03/29 02:15:45;;;;;;;4.97;1.50;;;8.20;99.90;;;;;;5019981;28;20473;-75
2024/03/29 02:18:30;;;;;;;2.90;1.30;;;8.30;99.90;;;;;;5019181;28;21122;-74
2024/03/29 02:21:16;;;;;;;4.60;1.63;;;8.20;99.90;;;;;;5017539;28;20501;-74
2024/03/29 02:24:07;;;;;;;3.70;1.40;;;8.30;99.90;;;;;;5013652;28;20477;-75
2024/03/29 02:26:53;;;;;;;3.50;1.17;;;8.40;99.90;;;;;;5020176;28;20575;-74
2024/03/29 02:29:39;;;;;;;4.10;1.50;;;8.40;99.90;;;;;;5020378;28;20969;-74
2024/03/29 02:32:25;;;;;;;3.00;1.00;;;8.50;99.90;;;;;;5020024;28;20432;-74
2024/03/29 02:35:10;;;;;;;2.33;1.07;;;8.60;99.90;;;;;;5020098;28;20828;-74
2024/03/29 02:37:56;;;;;;;3.47;1.43;;;8.60;99.90;;;;;;5017504;28;20979;-74
2024/03/29 02:40:43;;;;;;;4.57;1.20;;;8.70;99.90;;;;;;5019132;28;20510;-74
2024/03/29 02:43:29;;;;;;;5.63;1.00;;;8.70;99.90;;;;;;5014814;28;20951;-75
2024/03/29 02:46:15;;;;;;;2.20;0.93;;;8.70;99.90;;;;;;5018816;28;20863;-74
2024/03/29 02:49:00;;;;;;;2.10;1.20;;;8.80;99.90;;;;;;5018672;28;20469;-74
2024/03/29 02:51:45;;;;;;;2.13;1.00;;;8.80;99.90;;;;;;5020985;28;20486;-74
2024/03/29 02:54:30;;;;;;;2.17;1.03;;;8.90;99.90;;;;;;5016513;28;20901;-73
2024/03/29 02:57:17;;;;;;;1.50;0.90;;;9.00;99.90;;;;;;5017311;28;20500;-74
2024/03/29 03:00:03;;;;;;;1.90;1.10;;;9.10;99.90;;;;;;5018358;28;20461;-73
2024/03/29 03:02:49;;;;;;;8.70;1.53;;;9.30;86.40;;;;;;5014512;28;20536;-74
2024/03/29 03:05:33;;;;;;;5.77;1.33;;;9.50;85.80;;;;;;5014440;28;20869;-74
2024/03/29 03:11:22;;;;;;;1.90;0.80;;;9.70;86.50;;;;;;5018361;28;20453;-74
2024/03/29 03:14:09;;;;;;;2.50;1.00;;;9.90;77.30;;;;;;5020246;28;20458;-74
2024/03/29 03:16:55;;;;;;;7.27;1.43;;;10.00;71.80;;;;;;5019784;28;20529;-74
2024/03/29 03:19:40;;;;;;;3.53;1.17;;;10.10;67.30;;;;;;5013558;28;20437;-73
2024/03/29 03:22:26;;;;;;;3.10;1.40;;;10.20;64.20;;;;;;5017810;28;20467;-74
2024/03/29 03:25:10;;;;;;;3.00;0.90;;;10.30;60.70;;;;;;5016722;28;20799;-73
2024/03/29 03:27:56;;;;;;;3.13;1.10;;;10.40;59.60;;;;;;5019128;28;21020;-73
2024/03/29 03:30:42;;;;;;;2.47;0.97;;;10.40;58.00;;;;;;5021456;28;20541;-73
2024/03/29 03:33:28;;;;;;;2.20;1.00;;;10.50;55.30;;;;;;5018392;28;20974;-76
2024/03/29 03:36:13;;;;;;;2.33;0.90;;;10.60;47.90;;;;;;5013866;28;20445;-75
2024/03/29 03:38:58;;;;;;;2.37;1.17;;;10.70;43.40;;;;;;5016937;28;20975;-74
2024/03/29 03:41:43;;;;;;;1.90;0.80;;;10.80;43.50;;;;;;5017355;28;20987;-73
2024/03/29 03:44:29;;;;;;;1.80;1.03;;;10.90;41.90;;;;;;5016908;28;20470;-74
2024/03/29 03:47:15;;;;;;;2.03;1.00;;;10.90;40.50;;;;;;5015922;28;21001;-74
2024/03/29 03:50:00;;;;;;;3.10;1.03;;;10.90;42.60;;;;;;5017401;28;20418;-74
2024/03/29 03:52:45;;;;;;;2.43;0.80;;;11.00;37.30;;;;;;5020263;28;20481;-74
2024/03/29 03:55:31;;;;;;;1.73;0.83;;;11.00;37.00;;;;;;5018455;28;21021;-74
2024/03/29 03:58:15;;;;;;;3.80;1.13;;;11.10;40.90;;;;;;5014651;28;21066;-73
2024/03/29 04:01:05;;;;;;;1.70;0.90;;;11.10;40.30;;;;;;5017071;28;20448;-74
2024/03/29 04:03:51;;;;;;;1.90;1.10;;;11.10;42.50;;;;;;5015841;28;20497;-73
2024/03/29 04:06:36;;;;;;;1.93;0.90;;;11.10;42.10;;;;;;5016509;28;20530;-73
2024/03/29 04:09:22;;;;;;;2.60;0.97;;;11.00;37.70;;;;;;5016848;28;20470;-74
2024/03/29 04:12:07;;;;;;;4.33;1.20;;;11.00;43.70;;;;;;5015495;28;20982;-73
2024/03/29 04:14:53;;;;;;;2.27;1.23;;;11.00;41.10;;;;;;5017763;28;20483;-75
2024/03/29 04:17:37;;;;;;;2.47;0.90;;;11.00;43.70;;;;;;5026057;28;20618;-74
2024/03/29 04:20:24;;;;;;;3.83;0.73;;;11.00;47.50;;;;;;5025476;28;20471;-74
2024/03/29 04:23:09;;;;;;;2.97;1.23;;;11.00;43.70;;;;;;5019841;28;20981;-75
2024/03/29 04:26:00;;;;;;;1.70;0.80;;;11.10;44.50;;;;;;5020343;28;20518;-73
2024/03/29 04:28:45;;;;;;;6.67;1.40;;;11.10;44.80;;;;;;5019087;28;20482;-73
2024/03/29 04:31:30;;;;;;;1.93;1.00;;;11.10;46.10;;;;;;5018684;28;20456;-74
2024/03/29 04:34:15;;;;;;;2.07;0.90;;;11.20;43.90;;;;;;5016628;28;20606;-74
2024/03/29 04:37:02;;;;;;;5.20;1.00;;;11.20;46.40;;;;;;5018888;28;20463;-74
2024/03/29 04:39:48;;;;;;;2.73;0.90;;;11.20;51.70;;;;;;5019480;28;20460;-74
2024/03/29 04:42:34;;;;;;;2.50;1.13;;;11.10;60.20;;;;;;5016489;28;20605;-74
2024/03/29 04:45:19;;;;;;;2.03;1.07;;;11.00;73.90;;;;;;5016940;28;20464;-73
2024/03/29 04:48:06;;;;;;;2.03;0.87;;;10.80;92.70;;;;;;5022978;28;20474;-74
2024/03/29 04:50:51;;;;;;;5.13;1.20;;;10.70;97.80;;;;;;5020006;28;20453;-74
2024/03/29 04:53:39;;;;;;;5.00;1.33;;;10.60;99.90;;;;;;5017769;28;20451;-74
2024/03/29 04:56:25;;;;;;;2.63;0.90;;;10.50;99.90;;;;;;5016304;28;20609;-76
2024/03/29 04:59:11;;;;;;;2.33;0.90;;;10.30;99.90;;;;;;5019257;28;20788;-73
2024/03/29 05:01:56;;;;;;;4.23;1.20;;;10.10;99.90;;;;;;5017230;28;20450;-74
2024/03/29 05:04:42;;;;;;;3.63;1.20;;;10.10;99.90;;;;;;5021240;28;20510;-73
2024/03/29 05:07:28;;;;;;;2.90;1.00;;;10.00;99.90;;;;;;5019300;28;20458;-76
2024/03/29 05:10:16;;;;;;;2.50;0.83;;;10.00;99.90;;;;;;5021923;28;20550;-73
2024/03/29 05:13:02;;;;;;;2.03;1.00;;;9.90;99.90;;;;;;5019276;28;20451;-74
2024/03/29 05:15:47;;;;;;;3.10;1.00;;;9.90;99.90;;;;;;5019252;28;20793;-75
2024/03/29 05:18:33;;;;;;;2.60;1.20;;;9.90;99.90;;;;;;5021683;28;20545;-75
2024/03/29 05:21:19;;;;;;;4.97;1.13;;;9.90;99.90;;;;;;5019497;28;20473;-73
2024/03/29 05:24:05;;;;;;;2.97;1.10;;;9.80;99.90;;;;;;5018194;28;20472;-74
2024/03/29 05:26:52;;;;;;;1.47;0.90;;;9.80;99.90;;;;;;5018146;28;20450;-74
2024/03/29 05:29:37;;;;;;;4.10;1.17;;;9.80;99.90;;;;;;5017789;28;20452;-76
2024/03/29 05:32:23;;;;;;;3.33;0.97;;;9.70;99.90;;;;;;5019355;28;20429;-73
2024/03/29 05:35:09;;;;;;;5.40;1.23;;;9.80;99.90;;;;;;5017323;28;20537;-75
2024/03/29 05:37:55;;;;;;;3.90;1.00;;;9.70;99.90;;;;;;5018822;28;20461;-73
2024/03/29 05:40:41;;;;;;;4.50;1.20;;;9.60;99.90;;;;;;5020062;28;20447;-74
2024/03/29 05:43:28;;;;;;;3.27;1.20;;;9.60;99.90;;;;;;5019884;28;20462;-75
2024/03/29 05:46:16;;;;;;;2.60;0.87;;;9.50;99.90;;;;;;5017318;28;20526;-73
2024/03/29 05:49:02;;;;;;;3.37;1.13;;;9.50;99.90;;;;;;5015411;28;20565;-75
2024/03/29 05:51:48;;;;;;;2.60;1.03;;;9.50;99.90;;;;;;5018602;28;20505;-75
2024/03/29 05:54:34;;;;;;;1.73;0.77;;;9.50;99.90;;;;;;5019188;28;20486;-74
2024/03/29 05:57:19;;;;;;;2.63;1.17;;;9.50;99.90;;;;;;5017450;28;20970;-74
2024/03/29 06:00:08;;;;;;;5.57;1.17;;;9.50;99.90;;;;;;5020143;28;20777;-74
2024/03/29 06:02:54;;;;;;;5.43;1.30;;;9.50;99.90;;;;;;5015865;28;20466;-73
2024/03/29 06:05:41;;;;;;;4.47;1.40;;;9.50;99.90;;;;;;5018366;28;20569;-73
2024/03/29 06:08:27;;;;;;;2.07;1.00;;;9.50;99.90;;;;;;5019379;28;20453;-73
2024/03/29 06:11:12;;;;;;;2.27;1.30;;;9.50;99.90;;;;;;5020237;28;20442;-73
2024/03/29 06:20:07;;;;;;;5.40;1.50;;;9.50;99.90;;;;;;5015963;28;20522;-74
2024/03/29 06:22:53;;;;;;;3.00;1.13;;;9.60;99.90;;;;;;5019305;28;20553;-73
2024/03/29 06:25:40;;;;;;;2.90;1.40;;;9.60;99.90;;;;;;5018971;28;20468;-74
2024/03/29 06:28:25;;;;;;;2.50;1.20;;;9.60;99.90;;;;;;5017902;28;20554;-74
2024/03/29 06:31:11;;;;;;;3.87;1.37;;;9.60;99.90;;;;;;5020476;28;20458;-75
2024/03/29 06:33:59;;;;;;;4.03;0.90;;;9.70;99.90;;;;;;5017038;28;20435;-74
2024/03/29 06:36:44;;;;;;;4.50;1.77;;;9.60;99.90;;;;;;5016796;28;20475;-73
2024/03/29 06:39:30;;;;;;;2.53;1.47;;;9.70;99.90;;;;;;5019646;28;20423;-75
2024/03/29 06:42:15;;;;;;;2.30;1.13;;;9.70;99.90;;;;;;5017504;28;21019;-73
2024/03/29 06:45:02;;;;;;;3.40;1.30;;;9.80;99.90;;;;;;5018920;28;20996;-74
2024/03/29 06:47:48;;;;;;;2.13;1.20;;;9.80;99.90;;;;;;5019371;28;20608;-74
2024/03/29 06:50:35;;;;;;;2.23;1.00;;;9.80;99.90;;;;;;5021937;28;20504;-75
2024/03/29 06:53:21;;;;;;;2.27;1.10;;;9.80;99.90;;;;;;5019959;28;20485;-73
2024/03/29 06:56:07;;;;;;;10.77;1.53;;;9.80;99.90;;;;;;5018719;28;20468;-74
2024/03/29 06:58:52;;;;;;;2.27;1.37;;;9.90;99.90;;;;;;5020836;28;20464;-75
2024/03/29 07:01:38;;;;;;;2.27;1.03;;;9.90;99.90;;;;;;5022427;28;20426;-75
2024/03/29 07:04:25;;;;;;;1.80;0.90;;;9.90;99.90;;;;;;5024111;28;20471;-75
2024/03/29 07:07:11;;;;;;;2.63;0.90;;;10.00;99.90;;;;;;5015623;28;20525;-75
2024/03/29 07:09:58;;;;;;;1.70;1.00;;;10.00;99.90;;;;;;5015435;28;20493;-74
2024/03/29 07:12:43;;;;;;;1.67;1.00;;;10.10;99.90;;;;;;5015644;28;20474;-74
2024/03/29 07:15:29;;;;;;;2.20;0.87;;;10.10;99.90;;;;;;5023163;28;20555;-73
2024/03/29 07:18:15;;;;;;;1.80;1.10;;;10.20;99.90;;;;;;5016538;28;20425;-75
2024/03/29 07:21:00;;;;;;;1.60;1.03;;;10.20;99.90;;;;;;5018416;28;20977;-74
2024/03/29 07:23:47;;;;;;;1.60;0.90;;;10.20;99.90;;;;;;5016970;28;20800;-74
2024/03/29 07:26:33;;;;;;;2.50;1.20;;;10.30;99.90;;;;;;5019438;28;21153;-73
2024/03/29 07:29:18;;;;;;;6.23;1.30;;;10.30;99.90;;;;;;5017656;28;20449;-74
2024/03/29 07:32:05;;;;;;;2.47;1.47;;;10.30;99.90;;;;;;5018776;28;20985;-73
2024/03/29 07:34:50;;;;;;;2.00;0.90;;;10.40;99.90;;;;;;5016424;28;20486;-74
2024/03/29 07:37:36;;;;;;;3.53;1.70;;;10.40;99.90;;;;;;5018077;28;20792;-74
2024/03/29 07:40:23;;;;;;;3.87;2.00;;;10.50;99.90;;;;;;5017990;28;20498;-73
2024/03/29 07:43:09;;;;;;;5.70;3.53;;;10.60;99.90;;;;;;5019719;28;20481;-73
2024/03/29 07:45:55;;;;;;;6.43;4.00;;;10.60;99.90;;;;;;5014244;28;20842;-74
2024/03/29 07:48:40;;;;;;;4.50;3.13;;;10.70;99.90;;;;;;5018419;28;20465;-73
2024/03/29 07:51:26;;;;;;;7.43;4.10;;;10.80;99.90;;;;;;5014569;28;21000;-75
2024/03/29 07:54:12;;;;;;;3.90;2.33;;;10.80;99.90;;;;;;5015164;28;20521;-74
2024/03/29 07:56:59;;;;;;;2.40;1.50;;;10.80;99.90;;;;;;5015798;28;20820;-75
2024/03/29 07:59:44;;;;;;;2.27;1.37;;;10.90;99.90;;;;;;5015032;28;20832;-74
2024/03/29 08:02:31;;;;;;;4.53;2.40;;;11.00;99.90;;;;;;5020874;28;20499;-73
2024/03/29 08:05:17;;;;;;;3.13;1.70;;;11.00;99.90;;;;;;5012192;28;20471;-74
2024/03/29 08:08:03;;;;;;;2.57;1.10;;;11.10;99.90;;;;;;5017288;28;20606;-74
2024/03/29 08:10:49;;;;;;;4.33;1.63;;;11.20;99.90;;;;;;5021302;28;20486;-75
2024/03/29 08:13:36;;;;;;;1.73;0.97;;;11.20;99.90;;;;;;5018639;28;20457;-74
2024/03/29 08:16:21;;;;;;;6.03;1.60;;;11.20;95.10;;;;;;5018721;28;20533;-74
2024/03/29 08:19:07;;;;;;;2.53;1.30;;;11.30;99.90;;;;;;5015756;28;20489;-75
2024/03/29 08:21:52;;;;;;;6.83;1.40;;;11.30;98.00;;;;;;5016709;28;20489;-75
2024/03/29 08:24:38;;;;;;;2.20;0.90;;;11.30;99.90;;;;;;5013879;28;20476;-74
2024/03/29 08:27:24;;;;;;;3.30;1.20;;;11.30;99.90;;;;;;5015984;28;20448;-74
2024/03/29 08:30:12;;;;;;;2.57;1.00;;;11.30;99.90;;;;;;5012758;28;20904;-73
2024/03/29 08:32:59;;;;;;;6.00;1.00;;;11.30;99.90;;;;;;5015863;28;20468;-74
2024/03/29 08:35:45;;;;;;;2.07;1.10;;;11.20;99.90;;;;;;5016059;28;20479;-76
2024/03/29 08:38:30;;;;;;;2.03;0.93;;;11.20;99.90;;;;;;5015798;28;20522;-75
2024/03/29 08:41:16;;;;;;;1.90;0.80;;;11.00;99.90;;;;;;5015465;28;20455;-74
2024/03/29 08:44:02;;;;;;;3.50;1.10;;;10.90;99.90;;;;;;5015823;28;20429;-75
2024/03/29 08:46:49;;;;;;;2.30;0.80;;;10.80;99.90;;;;;;5016407;28;20459;-74
2024/03/29 08:49:35;;;;;;;3.60;1.17;;;10.80;99.90;;;;;;5014028;28;20631;-75
2024/03/29 08:52:21;;;;;;;3.40;0.90;;;10.70;99.90;;;;;;5016215;28;20778;-74
2024/03/29 08:55:07;;;;;;;3.20;0.90;;;10.60;99.90;;;;;;5016320;28;20594;-76
2024/03/29 08:57:52;;;;;;;1.90;0.90;;;10.60;99.90;;;;;;5013976;28;20434;-76
2024/03/29 09:00:39;;;;;;;2.90;0.80;;;10.50;99.90;;;;;;5017047;28;20447;-73
2024/03/29 09:03:26;;;;;;;3.10;1.17;;;10.60;99.90;;;;;;5021235;28;20443;-75
2024/03/29 09:06:12;;;;;;;3.50;1.20;;;10.60;99.90;;;;;;5020688;28;20418;-75
2024/03/29 09:08:57;;;;;;;1.90;0.97;;;10.60;99.90;;;;;;5017837;28;20455;-75
2024/03/29 09:11:43;;;;;;;6.90;1.67;;;10.60;99.90;;;;;;5018158;28;21098;-75
2024/03/29 09:14:29;;;;;;;2.17;1.57;;;10.60;99.90;;;;;;5018586;28;20460;-76
2024/03/29 09:17:15;;;;;;;3.63;0.90;;;10.60;99.90;;;;;;5016367;28;20559;-75
2024/03/29 09:20:04;;;;;;;3.87;1.07;;;10.60;99.90;;;;;;5018557;28;20423;-76
2024/03/29 09:22:52;;;;;;;3.17;1.10;;;10.60;99.90;;;;;;5018393;28;20602;-76
2024/03/29 09:25:41;;;;;;;6.47;1.20;;;10.50;99.90;;;;;;5014963;28;20842;-76
2024/03/29 09:28:27;;;;;;;7.10;1.50;;;10.60;99.90;;;;;;5018896;28;20533;-75
2024/03/29 09:31:12;;;;;;;5.37;1.63;;;10.60;99.90;;;;;;5021616;28;20464;-76
2024/03/29 09:33:58;;;;;;;3.43;1.47;;;10.60;99.90;;;;;;5020272;28;20418;-75
2024/03/29 09:36:45;;;;;;;3.27;1.13;;;10.70;99.90;;;;;;5019789;28;21002;-74
2024/03/29 09:39:30;;;;;;;3.53;1.10;;;10.70;99.90;;;;;;5020097;28;20438;-74
2024/03/29 09:42:18;;;;;;;5.80;2.00;;;10.70;99.90;;;;;;5019346;28;20419;-75
2024/03/29 09:45:05;;;;;;;2.00;1.10;;;10.80;99.90;;;;;;5017091;28;20848;-76
2024/03/29 09:47:53;;;;;;;4.30;1.37;;;10.80;99.90;;;;;;5017898;28;20470;-75
2024/03/29 09:50:39;;;;;;;6.50;1.60;;;10.80;99.90;;;;;;5021287;28;20571;-76
2024/03/29 09:53:26;;;;;;;1.83;1.23;;;10.80;99.90;;;;;;5015408;28;20800;-73
2024/03/29 09:56:12;;;;;;;5.80;1.33;;;10.80;99.90;;;;;;5016370;28;20502;-74
2024/03/29 09:58:58;;;;;;;1.70;1.10;;;10.80;99.90;;;;;;5018775;28;20430;-76
2024/03/29 10:01:44;;;;;;;2.23;1.07;;;10.80;99.90;;;;;;5019413;28;21871;-76
2024/03/29 10:04:30;;;;;;;1.63;1.00;;;10.80;99.90;;;;;;5014862;28;20474;-76
2024/03/29 10:07:17;;;;;;;2.70;1.03;;;10.80;99.90;;;;;;5021411;28;20903;-76
2024/03/29 10:10:04;;;;;;;2.40;1.00;;;10.80;99.90;;;;;;5015028;28;20881;-76
2024/03/29 10:12:50;;;;;;;2.93;1.20;;;10.70;99.90;;;;;;5015090;28;20940;-76
2024/03/29 10:15:38;;;;;;;5.10;1.73;;;10.80;99.90;;;;;;5014045;28;21002;-74
2024/03/29 10:18:23;;;;;;;3.37;1.20;;;10.80;99.90;;;;;;5021655;28;20430;-74
2024/03/29 10:21:09;;;;;;;6.30;1.73;;;10.90;99.90;;;;;;5017745;28;20434;-74
2024/03/29 10:23:55;;;;;;;6.70;2.67;;;10.90;99.90;;;;;;5022118;28;20467;-76
2024/03/29 10:26:43;;;;;;;3.30;2.03;;;11.00;99.90;;;;;;5023158;28;20430;-75
2024/03/29 10:29:29;;;;;;;1.97;1.23;;;11.00;99.90;;;;;;5018150;28;20583;-76
2024/03/29 10:32:16;;;;;;;2.67;1.60;;;11.00;99.90;;;;;;5016623;28;20519;-76
2024/03/29 10:35:02;;;;;;;3.07;1.40;;;11.00;99.90;;;;;;5016698;28;20453;-75
2024/03/29 10:37:48;;;;;;;2.40;1.70;;;11.10;99.90;;;;;;5018937;28;20479;-73
2024/03/29 10:40:34;;;;;;;4.53;1.70;;;11.10;99.90;;;;;;5018845;28;20506;-75
2024/03/29 10:43:22;;;;;;;2.90;1.73;;;11.20;99.90;;;;;;5015997;28;20523;-73
2024/03/29 10:46:08;;;;;;;5.07;2.10;;;11.20;99.90;;;;;;5017912;28;20455;-76
2024/03/29 10:48:54;;;;;;;8.13;2.37;;;11.30;99.90;;;;;;5018084;28;20957;-76
2024/03/29 10:51:40;;;;;;;3.07;1.73;;;11.40;99.90;;;;;;5019625;28;20425;-74
2024/03/29 10:54:27;;;;;;;6.83;1.60;;;11.40;99.90;;;;;;5016297;28;21110;-76
2024/03/29 10:57:20;;;;;;;5.40;1.50;;;11.50;99.90;;;;;;5019881;28;20619;-76
2024/03/29 11:00:14;;;;;;;2.83;1.50;;;11.60;99.90;;;;;;5016075;28;20441;-75
2024/03/29 11:03:10;;;;;;;2.20;1.50;;;11.70;99.90;;;;;;5017136;28;22117;-76
2024/03/29 11:06:03;;;;;;;3.33;1.50;;;11.70;99.90;;;;;;5019566;28;20480;-76
2024/03/29 11:08:53;;;;;;;3.03;1.20;;;11.80;99.90;;;;;;5019805;28;20517;-74
2024/03/29 11:11:41;;;;;;;2.07;1.30;;;11.90;99.90;;;;;;5013527;28;20515;-74
2024/03/29 11:14:32;;;;;;;2.57;1.33;;;12.00;99.90;;;;;;5024577;28;20947;-76
2024/03/29 11:17:19;;;;;;;5.00;1.40;;;12.00;99.90;;;;;;5019479;28;20523;-72
2024/03/29 11:20:06;;;;;;;2.40;1.13;;;12.10;99.90;;;;;;5024424;28;20487;-73
2024/03/29 11:22:52;;;;;;;3.97;1.53;;;12.10;99.90;;;;;;5027736;28;20436;-75
2024/03/29 11:25:43;;;;;;;2.60;1.23;;;12.10;99.90;;;;;;5027332;28;20646;-77
2024/03/29 11:28:32;;;;;;;4.57;1.50;;;12.10;99.90;;;;;;5027396;28;20435;-75
2024/03/29 11:31:19;;;;;;;2.43;1.30;;;12.10;99.90;;;;;;5025865;28;20962;-76
2024/03/29 11:34:10;;;;;;;2.57;1.30;;;12.20;99.90;;;;;;5027219;28;20470;-75
2024/03/29 11:36:56;;;;;;;1.93;1.20;;;12.30;99.90;;;;;;5026942;28;20466;-75
2024/03/29 11:39:47;;;;;;;4.50;1.23;;;12.40;99.90;;;;;;5024774;28;20438;-75
2024/03/29 11:42:45;;;;;;;3.50;1.53;;;12.50;99.90;;;;;;5024277;28;20439;-77
2024/03/29 11:45:32;;;;;;;7.33;2.00;;;12.50;99.90;;;;;;5025219;28;20503;-76
2024/03/29 11:48:25;;;;;;;3.37;1.30;;;12.60;99.90;;;;;;5027626;28;20413;-76
2024/03/29 11:51:14;;;;;;;3.20;1.50;;;12.60;99.90;;;;;;5020939;28;20809;-77
2024/03/29 11:54:01;;;;;;;3.10;1.57;;;12.60;99.90;;;;;;5017553;28;20435;-75
2024/03/29 11:56:48;;;;;;;4.83;2.00;;;12.60;99.90;;;;;;5022288;28;20803;-76
2024/03/29 11:59:34;;;;;;;4.40;1.67;;;12.60;99.90;;;;;;5023512;28;20397;-76
2024/03/29 12:02:19;;;;;;;3.60;1.43;;;12.50;99.90;;;;;;5024349;28;20414;-77
2024/03/29 12:05:09;;;;;;;3.03;1.33;;;12.50;99.90;;;;;;5027835;28;20566;-75
2024/03/29 12:07:56;;;;;;;6.53;1.70;;;12.40;99.90;;;;;;5024790;28;20517;-76
2024/03/29 12:10:42;;;;;;;4.23;1.33;;;12.40;99.90;;;;;;5027121;28;20486;-75
2024/03/29 12:13:28;;;;;;;7.73;1.73;;;12.40;99.90;;;;;;5028013;28;20450;-75
2024/03/29 12:16:13;;;;;;;5.77;1.70;;;12.40;99.90;;;;;;5027491;28;20442;-76
2024/03/29 12:18:59;;;;;;;2.87;1.20;;;12.40;99.90;;;;;;5020843;28;20963;-76
2024/03/29 12:21:45;;;;;;;2.80;1.57;;;12.30;99.90;;;;;;5013945;28;20445;-74
2024/03/29 12:24:32;;;;;;;1.80;1.10;;;12.30;99.90;;;;;;5017750;28;20521;-73
2024/03/29 12:27:18;;;;;;;3.73;1.10;;;12.20;99.90;;;;;;5021080;28;20456;-74
2024/03/29 12:30:05;;;;;;;2.40;1.40;;;12.20;99.90;;;;;;5017534;28;20585;-76
2024/03/29 12:33:01;;;;;;;6.40;1.80;;;12.20;99.90;;;;;;5021089;28;20430;-76
2024/03/29 12:35:49;;;;;;;9.27;1.90;;;12.20;99.90;;;;;;5019388;28;20484;-74
2024/03/29 12:38:34;;;;;;;4.90;1.50;;;12.20;99.90;;;;;;5024446;28;20460;-75
2024/03/29 12:41:24;;;;;;;2.70;1.30;;;12.30;99.90;;;;;;5018285;28;20472;-73
2024/03/29 12:44:10;;;;;;;4.07;1.87;;;12.30;99.90;;;;;;5023258;28;20454;-74
2024/03/29 12:46:55;;;;;;;3.43;1.57;;;12.40;99.90;;;;;;5019160;28;20463;-76
2024/03/29 12:49:42;;;;;;;3.43;1.10;;;12.30;99.90;;;;;;5025581;28;20427;-72
2024/03/29 12:52:28;;;;;;;3.00;1.60;;;12.40;99.90;;;;;;5025884;28;20994;-75
2024/03/29 12:55:17;;;;;;;3.90;1.70;;;12.50;99.90;;;;;;5023052;28;21102;-73
2024/03/29 12:58:07;;;;;;;5.10;1.80;;;12.40;99.90;;;;;;5022243;28;20507;-75
2024/03/29 13:00:53;;;;;;;2.90;2.07;;;12.40;99.90;;;;;;5019400;28;20431;-75
2024/03/29 13:03:40;;;;;;;2.93;1.70;;;12.40;99.90;;;;;;5022490;28;20454;-76
2024/03/29 13:06:26;;;;;;;2.93;2.00;;;12.50;99.90;;;;;;5022277;28;20462;-75
2024/03/29 13:09:13;;;;;;;6.30;1.43;;;12.50;99.90;;;;;;5021106;28;20828;-72
2024/03/29 13:11:58;;;;;;;4.00;1.87;;;12.50;99.90;;;;;;5022473;28;20459;-75
2024/03/29 13:14:45;;;;;;;5.73;2.33;;;12.50;99.90;;;;;;5022614;28;20939;-75
2024/03/29 13:17:31;;;;;;;8.87;2.30;;;12.50;99.90;;;;;;5021985;28;20458;-76
2024/03/29 13:20:17;;;;;;;4.57;2.10;;;12.50;99.90;;;;;;5019551;28;20815;-75
2024/03/29 13:23:03;;;;;;;4.43;1.90;;;12.50;99.90;;;;;;5021357;28;20430;-75
2024/03/29 13:25:48;;;;;;;3.03;2.50;;;12.40;99.90;;;;;;5022534;28;20993;-75
2024/03/29 13:28:34;;;;;;;3.70;1.90;;;12.50;99.90;;;;;;5026610;28;20464;-75
2024/03/29 13:31:23;;;;;;;4.07;2.50;;;12.40;99.90;;;;;;5020436;28;20429;-75
2024/03/29 13:34:12;;;;;;;3.23;2.60;;;12.40;99.90;;;;;;5024290;28;20593;-74
2024/03/29 13:36:58;;;;;;;3.87;2.77;;;12.40;99.90;;;;;;5023607;28;20765;-75
2024/03/29 13:39:44;;;;;;;5.63;3.40;;;12.40;99.90;;;;;;5019646;28;20427;-75
2024/03/29 13:42:30;;;;;;;2.87;2.27;;;12.30;99.90;;;;;;5026013;28;20429;-75
2024/03/29 13:45:17;;;;;;;4.87;3.17;;;12.40;99.90;;;;;;5020436;28;20503;-75
2024/03/29 13:48:05;;;;;;;6.03;3.20;;;12.40;99.90;;;;;;5021222;28;20798;-75
2024/03/29 13:50:50;;;;;;;4.57;3.40;;;12.40;99.90;;;;;;5021267;28;20546;-75
2024/03/29 13:53:36;;;;;;;6.20;3.70;;;12.40;99.90;;;;;;5018602;28;20433;-75
2024/03/29 13:56:22;;;;;;;5.93;3.27;;;12.30;99.90;;;;;;5020719;28;20463;-75
2024/03/29 13:59:08;;;;;;;5.27;4.67;;;12.30;99.90;;;;;;5024647;28;20474;-75
2024/03/29 14:01:54;;;;;;;6.00;3.73;;;12.30;99.90;;;;;;5021941;28;20464;-75
2024/03/29 14:04:41;;;;;;;5.87;3.37;;;12.30;99.90;;;;;;5025323;28;20518;-75
2024/03/29 14:07:28;;;;;;;6.07;3.60;;;12.30;99.90;;;;;;5019069;28;20830;-75
2024/03/29 14:10:14;;;;;;;4.90;3.80;;;12.30;99.90;;;;;;5021597;28;20460;-74
2024/03/29 14:13:01;;;;;;;4.70;3.40;;;12.30;99.90;;;;;;5023484;28;20467;-75
2024/03/29 14:15:47;;;;;;;4.57;3.57;;;12.40;99.90;;;;;;5023150;28;20461;-75
2024/03/29 14:18:32;;;;;;;5.93;3.10;;;12.40;99.90;;;;;;5023244;28;20619;-75
2024/03/29 14:21:19;;;;;;;4.13;3.00;;;12.40;99.90;;;;;;5016452;28;20449;-75
2024/03/29 14:24:06;;;;;;;3.73;3.33;;;12.50;99.90;;;;;;5019951;28;20474;-75
2024/03/29 14:26:51;;;;;;;5.37;2.87;;;12.40;99.90;;;;;;5022738;28;20470;-75
2024/03/29 14:29:37;;;;;;;2.93;2.57;;;12.50;99.90;;;;;;5018172;28;21034;-75
2024/03/29 14:32:23;;;;;;;6.47;3.10;;;12.40;99.90;;;;;;5024733;28;20537;-75
2024/03/29 14:35:10;;;;;;;4.30;3.73;;;12.50;99.90;;;;;;5022753;28;20473;-74
2024/03/29 14:37:57;;;;;;;7.73;4.00;;;12.50;99.90;;;;;;5019358;28;20470;-74
2024/03/29 14:40:43;;;;;;;5.47;3.40;;;12.50;99.90;;;;;;5025278;28;20422;-75
2024/03/29 14:43:28;;;;;;;4.50;3.40;;;12.70;99.90;;;;;;5016524;28;20463;-75
2024/03/29 14:46:14;;;;;;;5.53;2.70;;;12.80;99.90;;;;;;5018259;28;20481;-74
2024/03/29 14:49:00;;;;;;;5.60;3.20;;;12.90;99.90;;;;;;5023576;28;20966;-75
2024/03/29 14:51:45;;;;;;;4.93;3.40;;;13.00;99.90;;;;;;5024345;28;20951;-75
2024/03/29 14:54:32;;;;;;;5.80;2.80;;;13.10;99.90;;;;;;5016059;28;20458;-75
2024/03/29 14:57:21;;;;;;;6.00;3.17;;;13.10;99.90;;;;;;5049243;22;20492;-73
2024/03/29 15:00:09;;;;;;;4.70;2.80;;;13.20;99.90;;;;;;5019693;28;20714;-73
2024/03/29 15:02:55;;;;;;;4.47;2.30;;;13.20;99.90;;;;;;5023163;28;20460;-73
2024/03/29 15:05:42;;;;;;;3.33;2.50;;;13.30;99.90;;;;;;5020842;28;20456;-73
2024/03/29 15:08:27;;;;;;;7.00;4.60;;;13.30;99.90;;;;;;5018881;28;20459;-73
2024/03/29 15:11:15;;;;;;;5.93;3.60;;;13.30;99.90;;;;;;5023851;28;20415;-73
2024/03/29 15:14:00;;;;;;;4.33;3.13;;;13.30;99.90;;;;;;5019740;28;20426;-73
2024/03/29 15:16:47;;;;;;;4.10;2.30;;;13.30;99.90;;;;;;5020210;28;20471;-72
2024/03/29 15:19:33;;;;;;;3.50;2.53;;;13.30;99.90;;;;;;5021527;28;20439;-73
2024/03/29 15:22:19;;;;;;;3.13;2.50;;;13.30;99.90;;;;;;5016915;28;20469;-73
2024/03/29 15:25:04;;;;;;;2.50;1.90;;;13.30;99.90;;;;;;5020178;28;20456;-73
2024/03/29 15:30:57;;;;;;;3.43;2.57;;;13.30;99.90;;;;;;5018495;28;20480;-73
2024/03/29 15:33:43;;;;;;;4.53;1.97;;;13.30;99.90;;;;;;5028338;28;20444;-73
2024/03/29 15:36:29;;;;;;;2.80;1.90;;;13.30;99.90;;;;;;5023998;28;20446;-73
2024/03/29 15:39:19;;;;;;;3.27;2.10;;;13.30;99.90;;;;;;5022231;28;20535;-73
2024/03/29 15:42:09;;;;;;;4.53;2.20;;;13.30;99.90;;;;;;5021160;28;20456;-73
2024/03/29 15:44:56;;;;;;;3.70;2.10;;;13.30;99.90;;;;;;5018834;28;20461;-73
2024/03/29 15:47:41;;;;;;;3.83;1.93;;;13.40;99.90;;;;;;5019277;28;20427;-73
2024/03/29 15:50:27;;;;;;;2.57;1.70;;;13.50;99.90;;;;;;5019106;28;20440;-73
2024/03/29 15:53:13;;;;;;;10.27;2.70;;;13.70;99.90;;;;;;5023117;28;20427;-73
2024/03/29 15:55:59;;;;;;;5.00;1.80;;;13.80;99.90;;;;;;5019365;28;20447;-73
2024/03/29 15:58:45;;;;;;;4.07;1.93;;;13.90;99.90;;;;;;5020536;28;20470;-73
2024/03/29 16:01:32;;;;;;;3.07;1.83;;;14.10;99.90;;;;;;5019373;28;20427;-73
2024/03/29 16:04:18;;;;;;;2.70;1.87;;;14.20;99.90;;;;;;5019041;28;20555;-73
2024/03/29 16:07:04;;;;;;;2.37;1.53;;;14.30;99.90;;;;;;5022680;28;20475;-73
2024/03/29 16:09:50;;;;;;;4.50;1.23;;;14.40;99.90;;;;;;5021727;28;20569;-73
2024/03/29 16:12:35;;;;;;;2.00;1.20;;;14.40;99.90;;;;;;5024556;28;20448;-73
2024/03/29 16:15:21;;;;;;;2.53;1.40;;;14.40;99.90;;;;;;5025456;28;20933;-73
2024/03/29 16:18:08;;;;;;;2.70;1.63;;;14.30;99.90;;;;;;5024781;28;20464;-73
2024/03/29 16:20:53;;;;;;;3.83;1.37;;;14.30;99.90;;;;;;5030008;28;20445;-73
2024/03/29 16:23:39;;;;;;;1.83;1.10;;;14.20;99.90;;;;;;5026476;28;20489;-73